createdAt,value
2023-05-15T00:00:32.366Z,99593.78
2023-05-15T00:03:02.554Z,99586.81
2023-05-15T00:05:32.230Z,99578.13
2023-05-15T00:08:01.906Z,99579.91
2023-05-15T00:10:31.531Z,99569.34
2023-05-15T00:13:03.834Z,99561.56
2023-05-15T00:15:33.553Z,99559.06
2023-05-15T00:18:03.157Z,99553.00
2023-05-15T00:20:32.759Z,99548.69
2023-05-15T00:23:02.303Z,99546.88
2023-05-15T00:25:38.243Z,99544.22
2023-05-15T00:28:10.561Z,99546.06
2023-05-15T00:30:40.065Z,99550.38
2023-05-15T00:33:09.721Z,99552.34
2023-05-15T00:35:39.296Z,99540.78
2023-05-15T00:38:08.867Z,99527.69
2023-05-15T00:40:39.925Z,99521.63
2023-05-15T00:43:13.962Z,99514.63
2023-05-15T00:45:45.736Z,99499.75
2023-05-15T00:48:16.675Z,99496.22
2023-05-15T00:50:47.269Z,99492.66
2023-05-15T00:53:17.279Z,99489.25
2023-05-15T00:55:48.487Z,99475.22
2023-05-15T00:58:24.185Z,99471.84
2023-05-15T01:00:54.243Z,99464.75
2023-05-15T01:03:23.875Z,99460.31
2023-05-15T01:05:53.639Z,99462.16
2023-05-15T01:08:29.265Z,99473.56
2023-05-15T01:11:01.173Z,99465.75
2023-05-15T01:13:33.276Z,99462.19
2023-05-15T01:16:02.867Z,99448.19
2023-05-15T01:18:34.832Z,99448.97
2023-05-15T01:21:43.196Z,99460.34
2023-05-15T01:24:28.588Z,99436.66
2023-05-15T01:27:17.946Z,99437.56
2023-05-15T01:29:56.264Z,99452.56
2023-05-15T01:32:32.472Z,99456.00
2023-05-15T01:35:12.036Z,99448.06
2023-05-15T01:37:50.185Z,99444.66
2023-05-15T01:40:24.789Z,99447.28
2023-05-15T01:42:58.229Z,99447.22
2023-05-15T01:45:30.168Z,99445.41
2023-05-15T01:48:03.377Z,99437.47
2023-05-15T01:50:35.463Z,99426.22
2023-05-15T01:53:05.980Z,99426.13
2023-05-15T01:55:37.485Z,99434.81
2023-05-15T01:58:10.033Z,99427.84
2023-05-15T02:00:41.079Z,99424.47
2023-05-15T02:03:11.675Z,99419.13
2023-05-15T02:05:42.034Z,99411.13
2023-05-15T02:08:13.928Z,99401.47
2023-05-15T02:10:44.096Z,99402.31
2023-05-15T02:13:17.095Z,99397.97
2023-05-15T02:15:46.672Z,99397.97
2023-05-15T02:18:16.294Z,99393.56
2023-05-15T02:20:45.835Z,99391.91
2023-05-15T02:23:15.383Z,99392.91
2023-05-15T02:25:59.275Z,99391.16
2023-05-15T02:28:38.765Z,99384.88
2023-05-15T02:31:14.868Z,99371.75
2023-05-15T02:33:48.565Z,99362.88
2023-05-15T02:36:24.083Z,99362.84
2023-05-15T02:38:56.442Z,99351.34
2023-05-15T02:41:26.587Z,99350.44
2023-05-15T02:44:00.453Z,99345.16
2023-05-15T02:46:31.197Z,99346.13
2023-05-15T02:49:01.599Z,99334.75
2023-05-15T02:51:31.321Z,99330.41
2023-05-15T02:54:02.626Z,99321.63
2023-05-15T02:56:32.171Z,99318.25
2023-05-15T02:59:04.657Z,99308.56
2023-05-15T03:01:34.330Z,99308.63
2023-05-15T03:04:03.943Z,99297.28
2023-05-15T03:06:33.910Z,99290.38
2023-05-15T03:09:03.675Z,99290.47
2023-05-15T03:11:33.197Z,99289.59
2023-05-15T03:14:05.286Z,99278.06
2023-05-15T03:16:37.083Z,99275.44
2023-05-15T03:19:06.754Z,99271.00
2023-05-15T03:21:37.161Z,99267.34
2023-05-15T03:24:06.985Z,99256.81
2023-05-15T03:26:36.622Z,99254.19
2023-05-15T03:29:08.780Z,99256.84
2023-05-15T03:31:38.381Z,99251.66
2023-05-15T03:34:07.974Z,99254.22
2023-05-15T03:36:37.512Z,99256.81
2023-05-15T03:39:07.736Z,99254.13
2023-05-15T03:41:37.277Z,99244.47
2023-05-15T03:44:09.480Z,99246.28
2023-05-15T03:46:39.079Z,99237.63
2023-05-15T03:49:08.648Z,99235.84
2023-05-15T03:51:38.323Z,99234.03
2023-05-15T03:54:08.437Z,99235.81
2023-05-15T03:56:38.001Z,99234.00
2023-05-15T03:59:10.235Z,99226.16
2023-05-15T04:01:51.014Z,99225.31
2023-05-15T04:04:29.240Z,99229.75
2023-05-15T04:06:58.812Z,99233.22
2023-05-15T04:09:28.524Z,99235.88
2023-05-15T04:11:58.079Z,99229.75
2023-05-15T04:14:30.190Z,99224.50
2023-05-15T04:16:59.742Z,99223.50
2023-05-15T04:19:29.374Z,99223.41
2023-05-15T04:21:58.908Z,99224.16
2023-05-15T04:24:28.455Z,99213.69
2023-05-15T04:26:58.047Z,99215.38
2023-05-15T04:29:30.195Z,99218.91
2023-05-15T04:32:00.324Z,99217.94
2023-05-15T04:34:30.233Z,99220.59
2023-05-15T04:36:59.843Z,99214.50
2023-05-15T04:39:29.402Z,99221.44
2023-05-15T04:41:59.004Z,99213.75
2023-05-15T04:44:31.111Z,99217.94
2023-05-15T04:47:00.697Z,99197.81
2023-05-15T04:49:30.207Z,99204.75
2023-05-15T04:51:59.739Z,99205.56
2023-05-15T04:54:29.275Z,99203.00
2023-05-15T04:56:58.776Z,99195.88
2023-05-15T05:02:05.875Z,99192.19
2023-05-15T05:04:35.479Z,99195.78
2023-05-15T05:07:06.043Z,99189.47
2023-05-15T05:09:35.572Z,99180.69
2023-05-15T05:12:05.076Z,99181.50
2023-05-15T05:14:37.653Z,99177.19
2023-05-15T05:17:07.599Z,99173.91
2023-05-15T05:19:37.208Z,99173.94
2023-05-15T05:22:07.900Z,99173.75
2023-05-15T05:24:38.228Z,99176.13
2023-05-15T05:27:08.889Z,99162.41
2023-05-15T05:29:41.108Z,99153.25
2023-05-15T05:32:10.907Z,99149.56
2023-05-15T05:34:40.420Z,99146.03
2023-05-15T05:37:10.017Z,99152.72
2023-05-15T05:39:39.551Z,99151.97
2023-05-15T05:42:09.155Z,99148.41
2023-05-15T05:44:41.268Z,99151.28
2023-05-15T05:47:10.910Z,99145.59
2023-05-15T05:49:40.597Z,99146.75
2023-05-15T05:52:10.935Z,99143.06
2023-05-15T05:54:40.537Z,99137.28
2023-05-15T05:57:10.546Z,99134.94
2023-05-15T05:59:42.945Z,99124.44
2023-05-15T06:02:13.046Z,99127.16
2023-05-15T06:04:42.617Z,99121.09
2023-05-15T06:07:12.426Z,99121.91
2023-05-15T06:09:41.972Z,99118.16
2023-05-15T06:12:11.531Z,99110.19
2023-05-15T06:14:43.790Z,99106.72
2023-05-15T06:17:13.480Z,99103.00
2023-05-15T06:19:43.128Z,99112.19
2023-05-15T06:22:12.641Z,99108.66
2023-05-15T06:24:42.401Z,99098.31
2023-05-15T06:27:11.926Z,99096.34
2023-05-15T06:29:44.064Z,99097.22
2023-05-15T06:32:13.579Z,99088.97
2023-05-15T06:34:43.089Z,99090.66
2023-05-15T06:37:12.859Z,99093.25
2023-05-15T06:39:42.446Z,99091.84
2023-05-15T06:42:12.414Z,99094.69
2023-05-15T06:44:44.579Z,99090.13
2023-05-15T06:47:14.121Z,99090.50
2023-05-15T06:49:43.736Z,99082.47
2023-05-15T06:52:13.498Z,99080.84
2023-05-15T06:54:43.462Z,99082.72
2023-05-15T06:57:13.043Z,99080.81
2023-05-15T06:59:45.168Z,99079.09
2023-05-15T07:02:14.930Z,99074.72
2023-05-15T07:04:44.536Z,99077.13
2023-05-15T07:07:14.528Z,99072.69
2023-05-15T07:09:48.476Z,99080.09
2023-05-15T07:12:18.165Z,99086.84
2023-05-15T07:14:50.285Z,99077.53
2023-05-15T07:17:19.851Z,99077.53
2023-05-15T07:19:49.409Z,99077.31
2023-05-15T07:22:18.978Z,99075.16
2023-05-15T07:24:48.483Z,99077.63
2023-05-15T07:27:18.009Z,99073.19
2023-05-15T07:29:50.107Z,99067.31
2023-05-15T07:32:19.944Z,99074.69
2023-05-15T07:34:49.518Z,99064.63
2023-05-15T07:37:19.073Z,99067.47
2023-05-15T07:39:48.645Z,99060.81
2023-05-15T07:42:18.311Z,99065.38
2023-05-15T07:44:50.479Z,99064.72
2023-05-15T07:47:20.042Z,99061.84
2023-05-15T07:49:49.566Z,99051.09
2023-05-15T07:52:19.275Z,99062.78
2023-05-15T07:54:48.813Z,99058.78
2023-05-15T07:57:18.481Z,99070.38
2023-05-15T07:59:50.614Z,99063.66
2023-05-15T08:02:20.225Z,99057.88
2023-05-15T08:04:49.837Z,99060.31
2023-05-15T08:07:19.644Z,99055.97
2023-05-15T08:09:49.283Z,99054.94
2023-05-15T08:12:21.374Z,99048.69
2023-05-15T08:14:55.679Z,99047.97
2023-05-15T08:17:26.132Z,99053.09
2023-05-15T08:19:56.230Z,99047.94
2023-05-15T08:22:25.848Z,99051.81
2023-05-15T08:24:55.458Z,99045.56
2023-05-15T08:27:25.040Z,99048.00
2023-05-15T08:29:57.198Z,99045.53
2023-05-15T08:32:27.422Z,99044.16
2023-05-15T08:34:56.985Z,99039.59
2023-05-15T08:37:26.582Z,99047.25
2023-05-15T08:39:56.158Z,99041.91
2023-05-15T08:42:33.978Z,99034.22
2023-05-15T08:45:07.522Z,99037.56
2023-05-15T08:47:41.515Z,99048.97
2023-05-15T08:50:14.747Z,99042.69
2023-05-15T08:52:47.110Z,99046.09
2023-05-15T08:55:17.526Z,99041.41
2023-05-15T08:57:47.793Z,99048.06
2023-05-15T09:00:22.277Z,99040.75
2023-05-15T09:02:51.991Z,99040.84
2023-05-15T09:05:21.712Z,99038.78
2023-05-15T09:07:52.181Z,99039.69
2023-05-15T09:10:22.302Z,99041.72
2023-05-15T09:12:54.844Z,99038.84
2023-05-15T09:15:28.227Z,99030.41
2023-05-15T09:17:58.038Z,99033.75
2023-05-15T09:20:29.666Z,99022.56
2023-05-15T09:22:59.795Z,99027.09
2023-05-15T09:25:43.541Z,99029.91
2023-05-15T09:28:28.112Z,99034.28
2023-05-15T09:31:05.217Z,99038.66
2023-05-15T09:33:36.685Z,99031.59
2023-05-15T09:36:07.684Z,99035.72
2023-05-15T09:38:38.170Z,99041.41
2023-05-15T09:41:08.901Z,99037.06
2023-05-15T09:43:40.543Z,99043.31
2023-05-15T09:46:16.082Z,99030.13
2023-05-15T09:48:46.065Z,99032.31
2023-05-15T09:51:18.417Z,99027.03
2023-05-15T09:53:51.681Z,99022.16
2023-05-15T09:56:22.162Z,99027.66
2023-05-15T09:58:56.292Z,99027.66
2023-05-15T10:01:29.346Z,99027.00
2023-05-15T10:04:02.739Z,99033.88
2023-05-15T10:06:38.428Z,99024.19
2023-05-15T10:09:09.382Z,99031.34
2023-05-15T10:11:40.333Z,99032.13
2023-05-15T10:14:11.895Z,99032.28
2023-05-15T10:16:44.280Z,99035.00
2023-05-15T10:19:15.787Z,99029.06
2023-05-15T10:21:45.483Z,99027.97
2023-05-15T10:24:16.443Z,99031.94
2023-05-15T10:26:46.465Z,99023.09
2023-05-15T10:29:18.162Z,99028.22
2023-05-15T10:31:52.445Z,99027.75
2023-05-15T10:34:22.989Z,99028.28
2023-05-15T10:36:52.848Z,99026.97
2023-05-15T10:39:23.557Z,99035.41
2023-05-15T10:41:54.034Z,99038.53
2023-05-15T10:44:24.962Z,99032.09
2023-05-15T10:46:58.308Z,99038.56
2023-05-15T10:49:28.107Z,99035.81
2023-05-15T10:51:57.713Z,99028.06
2023-05-15T10:54:27.298Z,99027.34
2023-05-15T10:56:58.900Z,99047.22
2023-05-15T10:59:34.131Z,99048.44
2023-05-15T11:02:24.901Z,99042.16
2023-05-15T11:04:59.567Z,99041.94
2023-05-15T11:07:29.573Z,99043.50
2023-05-15T11:09:59.994Z,99047.34
2023-05-15T11:12:58.899Z,99041.13
2023-05-15T11:15:28.490Z,99036.75
2023-05-15T11:18:10.975Z,99032.81
2023-05-15T11:20:45.778Z,99023.56
2023-05-15T11:23:15.361Z,99013.34
2023-05-15T11:25:44.965Z,99015.47
2023-05-15T11:28:24.820Z,99016.69
2023-05-15T11:30:55.924Z,98995.97
2023-05-15T11:33:32.809Z,99006.88
2023-05-15T11:36:03.264Z,99009.34
2023-05-15T11:38:40.708Z,99004.47
2023-05-15T11:41:30.127Z,98998.97
2023-05-15T11:44:00.280Z,98989.63
2023-05-15T11:46:30.629Z,98996.56
2023-05-15T11:49:02.958Z,98998.06
2023-05-15T11:51:32.950Z,99005.78
2023-05-15T11:54:07.510Z,99005.22
2023-05-15T11:56:37.617Z,99004.66
2023-05-15T11:59:07.155Z,98997.94
2023-05-15T12:01:42.629Z,99006.00
2023-05-15T12:04:19.611Z,99004.13
2023-05-15T12:06:50.154Z,99003.97
2023-05-15T12:09:22.785Z,99002.78
2023-05-15T12:11:54.223Z,98999.19
2023-05-15T12:14:29.899Z,98992.44
2023-05-15T12:17:03.077Z,98998.19
2023-05-15T12:19:37.297Z,98985.72
2023-05-15T12:22:08.575Z,98987.88
2023-05-15T12:24:41.526Z,98982.28
2023-05-15T12:27:11.687Z,98977.09
2023-05-15T12:29:42.998Z,98967.41
2023-05-15T12:32:13.298Z,98973.75
2023-05-15T12:34:45.932Z,98971.00
2023-05-15T12:37:16.291Z,98980.59
2023-05-15T12:39:56.923Z,98971.69
2023-05-15T12:42:26.623Z,98973.06
2023-05-15T12:44:57.517Z,98971.94
2023-05-15T12:47:28.741Z,98976.81
2023-05-15T12:50:01.376Z,98969.94
2023-05-15T12:52:31.754Z,98987.38
2023-05-15T12:55:03.858Z,98981.16
2023-05-15T12:57:33.513Z,98979.84
2023-05-15T13:00:04.471Z,98975.19
2023-05-15T13:02:34.051Z,98971.97
2023-05-15T13:05:07.979Z,98976.72
2023-05-15T13:07:37.696Z,98982.84
2023-05-15T13:10:14.417Z,98975.56
2023-05-15T13:12:47.108Z,98967.81
2023-05-15T13:15:28.140Z,98973.69
2023-05-15T13:18:01.688Z,98968.41
2023-05-15T13:20:36.670Z,98975.53
2023-05-15T13:23:06.619Z,98969.81
2023-05-15T13:25:36.739Z,98977.75
2023-05-15T13:28:07.821Z,98971.41
2023-05-15T13:30:41.661Z,98974.59
2023-05-15T13:33:12.640Z,98977.47
2023-05-15T13:35:45.989Z,98982.91
2023-05-15T13:38:15.650Z,98972.66
2023-05-15T13:40:45.217Z,98970.22
2023-05-15T13:43:15.044Z,98970.38
2023-05-15T13:45:44.636Z,98979.50
2023-05-15T13:48:14.334Z,98983.88
2023-05-15T13:50:46.535Z,98978.63
2023-05-15T13:53:17.170Z,98978.16
2023-05-15T13:55:47.528Z,98984.88
2023-05-15T13:58:17.116Z,98984.88
2023-05-15T14:00:47.424Z,98988.63
2023-05-15T14:03:17.119Z,98983.41
2023-05-15T14:05:49.359Z,98987.16
2023-05-15T14:08:18.919Z,98992.09
2023-05-15T14:10:48.603Z,98994.56
2023-05-15T14:13:18.134Z,99002.47
2023-05-15T14:15:47.703Z,98992.94
2023-05-15T14:18:17.256Z,98994.25
2023-05-15T14:20:49.388Z,98990.88
2023-05-15T14:23:18.928Z,98991.31
2023-05-15T14:25:48.448Z,99000.06
2023-05-15T14:28:17.968Z,98999.22
2023-05-15T14:30:47.483Z,98995.13
2023-05-15T14:33:17.182Z,98994.91
2023-05-15T14:35:49.319Z,99001.69
2023-05-15T14:38:18.854Z,99006.75
2023-05-15T14:40:48.447Z,99013.28
2023-05-15T14:43:17.989Z,99006.03
2023-05-15T14:45:47.592Z,99001.44
2023-05-15T14:48:17.393Z,99014.91
2023-05-15T14:50:49.543Z,99014.16
2023-05-15T14:53:19.126Z,99025.84
2023-05-15T14:55:48.740Z,99016.75
2023-05-15T14:58:18.422Z,99021.66
2023-05-15T15:00:48.402Z,99030.47
2023-05-15T15:03:19.288Z,99030.63
2023-05-15T15:05:52.064Z,99018.25
2023-05-15T15:08:21.672Z,99029.59
2023-05-15T15:10:51.263Z,99031.22
2023-05-15T15:13:21.272Z,99032.69
2023-05-15T15:15:50.962Z,99030.06
2023-05-15T15:18:21.537Z,99035.13
2023-05-15T15:20:53.766Z,99030.50
2023-05-15T15:23:23.391Z,99033.25
2023-05-15T15:25:53.006Z,99032.88
2023-05-15T15:28:22.587Z,99042.63
2023-05-15T15:30:52.174Z,99034.88
2023-05-15T15:33:21.692Z,99025.31
2023-05-15T15:35:53.835Z,99025.69
2023-05-15T15:38:23.549Z,99030.22
2023-05-15T15:40:53.105Z,99037.25
2023-05-15T15:43:22.646Z,99037.53
2023-05-15T15:45:52.273Z,99027.22
2023-05-15T15:48:21.819Z,99040.72
2023-05-15T15:50:54.431Z,99041.84
2023-05-15T15:53:24.455Z,99043.91
2023-05-15T15:55:53.993Z,99041.59
2023-05-15T15:58:23.991Z,99051.41
2023-05-15T16:00:53.667Z,99047.69
2023-05-15T16:03:23.304Z,99049.47
2023-05-15T16:05:56.993Z,99046.47
2023-05-15T16:08:28.104Z,99041.44
2023-05-15T16:10:58.170Z,99042.34
2023-05-15T16:13:27.798Z,99035.00
2023-05-15T16:15:57.373Z,99029.94
2023-05-15T16:18:27.414Z,99039.47
2023-05-15T16:20:59.544Z,99031.66
2023-05-15T16:23:29.116Z,99032.59
2023-05-15T16:25:59.136Z,99036.03
2023-05-15T16:28:28.710Z,99037.53
2023-05-15T16:30:58.384Z,99041.47
2023-05-15T16:33:28.028Z,99034.16
2023-05-15T16:36:00.284Z,99036.44
2023-05-15T16:38:29.871Z,99044.84
2023-05-15T16:40:59.375Z,99034.25
2023-05-15T16:43:29.089Z,99040.81
2023-05-15T16:45:59.128Z,99039.88
2023-05-15T16:48:29.016Z,99044.88
2023-05-15T16:51:01.352Z,99049.97
2023-05-15T16:53:31.049Z,99049.50
2023-05-15T16:56:00.736Z,99063.28
2023-05-15T16:58:30.284Z,99065.38
2023-05-15T17:00:59.824Z,99066.16
2023-05-15T17:03:29.485Z,99069.47
2023-05-15T17:06:01.691Z,99074.00
2023-05-15T17:08:31.240Z,99074.94
2023-05-15T17:13:36.293Z,99076.03
2023-05-15T17:16:05.918Z,99073.44
2023-05-15T17:18:35.747Z,99071.72
2023-05-15T17:21:08.008Z,99072.81
2023-05-15T17:23:37.797Z,99070.97
2023-05-15T17:26:07.407Z,99073.72
2023-05-15T17:28:39.033Z,99072.06
2023-05-15T17:31:12.388Z,99075.69
2023-05-15T17:33:42.463Z,99077.53
2023-05-15T17:36:14.814Z,99076.81
2023-05-15T17:38:44.920Z,99086.94
2023-05-15T17:41:14.485Z,99087.22
2023-05-15T17:43:44.068Z,99079.47
2023-05-15T17:46:13.791Z,99084.91
2023-05-15T17:48:43.427Z,99082.38
2023-05-15T17:51:15.611Z,99083.22
2023-05-15T17:53:45.257Z,99088.47
2023-05-15T17:56:14.912Z,99085.75
2023-05-15T17:58:44.693Z,99092.75
2023-05-15T18:01:14.330Z,99101.25
2023-05-15T18:03:43.930Z,99109.25
2023-05-15T18:06:16.538Z,99101.91
2023-05-15T18:08:47.714Z,99111.53
2023-05-15T18:11:22.255Z,99109.66
2023-05-15T18:13:52.428Z,99114.31
2023-05-15T18:16:22.201Z,99120.66
2023-05-15T18:18:52.406Z,99119.94
2023-05-15T18:21:24.589Z,99119.03
2023-05-15T18:23:54.193Z,99120.81
2023-05-15T18:26:25.810Z,99125.22
2023-05-15T18:28:55.427Z,99128.03
2023-05-15T18:31:25.235Z,99134.31
2023-05-15T18:33:54.816Z,99133.66
2023-05-15T18:36:26.961Z,99141.75
2023-05-15T18:38:56.532Z,99147.16
2023-05-15T18:41:27.019Z,99156.09
2023-05-15T18:43:56.521Z,99159.63
2023-05-15T18:46:28.493Z,99158.84
2023-05-15T18:48:58.197Z,99158.94
2023-05-15T18:51:31.089Z,99160.84
2023-05-15T18:54:00.658Z,99160.88
2023-05-15T18:56:30.192Z,99172.28
2023-05-15T18:58:59.720Z,99163.69
2023-05-15T19:01:29.270Z,99166.34
2023-05-15T19:03:59.001Z,99186.69
2023-05-15T19:06:31.242Z,99176.25
2023-05-15T19:09:00.755Z,99179.78
2023-05-15T19:11:30.246Z,99199.03
2023-05-15T19:13:59.834Z,99199.94
2023-05-15T19:16:29.630Z,99199.25
2023-05-15T19:18:59.584Z,99203.69
2023-05-15T19:21:31.775Z,99209.81
2023-05-15T19:24:01.335Z,99207.34
2023-05-15T19:26:31.311Z,99204.91
2023-05-15T19:29:00.994Z,99209.34
2023-05-15T19:31:32.273Z,99208.56
2023-05-15T19:34:02.267Z,99209.53
2023-05-15T19:36:34.389Z,99212.97
2023-05-15T19:39:03.946Z,99216.56
2023-05-15T19:41:33.494Z,99221.06
2023-05-15T19:44:04.011Z,99217.66
2023-05-15T19:46:33.662Z,99215.19
2023-05-15T19:49:03.382Z,99216.22
2023-05-15T19:51:35.700Z,99224.13
2023-05-15T19:54:05.226Z,99211.88
2023-05-15T19:56:34.805Z,99216.28
2023-05-15T19:59:04.371Z,99222.53
2023-05-15T20:01:33.917Z,99225.22
2023-05-15T20:04:03.501Z,99217.28
2023-05-15T20:06:36.371Z,99210.34
2023-05-15T20:09:06.150Z,99215.41
2023-05-15T20:11:35.858Z,99217.28
2023-05-15T20:14:08.257Z,99219.09
2023-05-15T20:16:37.894Z,99213.75
2023-05-15T20:19:07.957Z,99218.16
2023-05-15T20:21:40.522Z,99214.66
2023-05-15T20:24:10.445Z,99222.56
2023-05-15T20:26:39.998Z,99220.91
2023-05-15T20:29:09.492Z,99220.88
2023-05-15T20:31:40.738Z,99222.78
2023-05-15T20:34:15.045Z,99226.38
2023-05-15T20:36:47.504Z,99220.44
2023-05-15T20:39:17.485Z,99225.88
2023-05-15T20:41:47.091Z,99232.03
2023-05-15T20:44:16.611Z,99233.66
2023-05-15T20:46:46.597Z,99227.56
2023-05-15T20:49:16.196Z,99222.31
2023-05-15T20:51:48.897Z,99224.06
2023-05-15T20:54:18.541Z,99231.09
2023-05-15T20:56:48.053Z,99227.59
2023-05-15T20:59:17.909Z,99239.84
2023-05-15T21:01:47.478Z,99239.06
2023-05-15T21:04:17.193Z,99231.09
2023-05-15T21:06:49.474Z,99234.66
2023-05-15T21:09:19.426Z,99232.13
2023-05-15T21:11:49.199Z,99240.84
2023-05-15T21:14:18.962Z,99238.34
2023-05-15T21:16:48.592Z,99232.97
2023-05-15T21:19:18.456Z,99236.59
2023-05-15T21:21:50.953Z,99234.03
2023-05-15T21:24:20.555Z,99226.03
2023-05-15T21:26:50.087Z,99225.09
2023-05-15T21:29:19.729Z,99225.94
2023-05-15T21:31:49.392Z,99229.56
2023-05-15T21:34:19.015Z,99236.69
2023-05-15T21:36:51.175Z,99233.28
2023-05-15T21:39:20.731Z,99235.19
2023-05-15T21:41:51.173Z,99230.06
2023-05-15T21:44:24.141Z,99224.97
2023-05-15T21:46:53.722Z,99236.34
2023-05-15T21:49:23.278Z,99237.28
2023-05-15T21:51:55.376Z,99239.16
2023-05-15T21:54:24.899Z,99243.59
2023-05-15T21:56:54.600Z,99245.41
2023-05-15T21:59:24.534Z,99248.81
2023-05-15T22:01:54.179Z,99255.88
2023-05-15T22:04:23.761Z,99246.34
2023-05-15T22:06:56.032Z,99255.88
2023-05-15T22:09:25.563Z,99262.94
2023-05-15T22:11:55.112Z,99264.88
2023-05-15T22:14:24.619Z,99269.31
2023-05-15T22:16:54.165Z,99270.41
2023-05-15T22:19:32.586Z,99266.75
2023-05-15T22:22:05.542Z,99266.94
2023-05-15T22:24:35.111Z,99277.44
2023-05-15T22:27:04.627Z,99274.16
2023-05-15T22:29:34.128Z,99272.44
2023-05-15T22:32:03.796Z,99269.06
2023-05-15T22:34:33.431Z,99281.38
2023-05-15T22:37:05.583Z,99269.16
2023-05-15T22:39:36.397Z,99276.22
2023-05-15T22:42:07.274Z,99277.97
2023-05-15T22:44:36.836Z,99276.72
2023-05-15T22:47:07.852Z,99279.53
2023-05-15T22:49:38.096Z,99275.25
2023-05-15T22:54:45.280Z,99279.91
2023-05-15T22:57:14.867Z,99278.06
2023-05-15T22:59:44.705Z,99279.84
2023-05-15T23:02:14.178Z,99286.91
2023-05-15T23:04:43.716Z,99287.81
2023-05-15T23:07:17.443Z,99286.13
2023-05-15T23:09:47.139Z,99281.78
2023-05-15T23:12:16.650Z,99282.53
2023-05-15T23:14:46.178Z,99288.84
2023-05-15T23:17:15.692Z,99291.44
2023-05-15T23:19:45.231Z,99291.25
2023-05-15T23:22:17.324Z,99302.03
2023-05-15T23:24:46.839Z,99297.41
2023-05-15T23:27:16.378Z,99299.00
2023-05-15T23:29:46.344Z,99301.47
2023-05-15T23:32:15.882Z,99302.56
2023-05-15T23:34:45.426Z,99299.00
2023-05-15T23:37:17.555Z,99305.97
2023-05-15T23:39:47.066Z,99303.34
2023-05-15T23:42:16.657Z,99303.19
2023-05-15T23:44:46.840Z,99309.25
2023-05-15T23:47:16.402Z,99311.88
2023-05-15T23:49:46.053Z,99309.22
2023-05-15T23:52:18.167Z,99311.81
2023-05-15T23:54:47.684Z,99308.31
2023-05-15T23:57:17.311Z,99313.47
2023-05-15T23:59:46.841Z,99310.88
